createdAt,value
2019-03-05T00:05:09.177Z,99181.05
2019-03-05T00:10:33.123Z,99179.59
2019-03-05T00:15:57.557Z,99187.17
2019-03-05T00:21:22.278Z,99179.27
2019-03-05T00:26:46.868Z,99175.46
2019-03-05T00:32:11.505Z,99183.35
2019-03-05T00:37:47.693Z,99171.83
2019-03-05T00:43:39.648Z,99176.08
2019-03-05T00:49:40.641Z,99161.25
2019-03-05T00:55:31.080Z,99185.28
2019-03-05T01:01:36.455Z,99178.91
2019-03-05T01:07:00.254Z,99181.70
2019-03-05T01:12:25.168Z,99186.66
2019-03-05T01:17:49.311Z,99185.27
2019-03-05T01:23:14.623Z,99181.78
2019-03-05T01:28:38.673Z,99179.42
2019-03-05T01:34:16.395Z,99188.89
2019-03-05T01:39:57.776Z,99196.72
2019-03-05T01:45:22.538Z,99184.08
2019-03-05T01:50:48.232Z,99193.90
2019-03-05T01:56:12.043Z,99186.09
2019-03-05T02:01:36.527Z,99194.14
2019-03-05T02:07:01.335Z,99197.44
2019-03-05T02:12:25.104Z,99207.38
2019-03-05T02:17:48.863Z,99212.42
2019-03-05T02:23:38.841Z,99211.50
2019-03-05T02:29:47.105Z,99222.94
2019-03-05T02:35:31.130Z,99210.53
2019-03-05T02:41:41.481Z,99204.61
2019-03-05T02:47:14.864Z,99203.33
2019-03-05T02:53:17.739Z,99206.29
2019-03-05T02:58:41.639Z,99216.91
2019-03-05T03:04:10.394Z,99217.14
2019-03-05T03:10:12.962Z,99218.22
2019-03-05T03:15:37.100Z,99200.87
2019-03-05T03:21:01.409Z,99201.82
2019-03-05T03:26:26.127Z,99202.41
2019-03-05T03:31:50.454Z,99190.93
2019-03-05T03:37:15.068Z,99214.23
2019-03-05T03:42:39.534Z,99231.25
2019-03-05T03:48:03.412Z,99226.53
2019-03-05T03:53:28.172Z,99211.48
2019-03-05T03:58:51.933Z,99215.86
2019-03-05T04:04:16.999Z,99237.38
2019-03-05T04:09:40.812Z,99250.53
2019-03-05T04:15:05.264Z,99254.64
2019-03-05T04:20:34.485Z,99256.89
2019-03-05T04:25:58.651Z,99268.02
2019-03-05T04:31:23.382Z,99264.22
2019-03-05T04:36:47.968Z,99273.44
2019-03-05T04:42:12.371Z,99271.66
2019-03-05T04:47:37.518Z,99280.56
2019-03-05T04:53:02.223Z,99289.53
2019-03-05T04:58:26.059Z,99284.81
2019-03-05T05:03:51.152Z,99296.63
2019-03-05T05:09:15.673Z,99292.97
2019-03-05T05:14:40.301Z,99299.75
2019-03-05T05:20:05.474Z,99299.37
2019-03-05T05:25:29.221Z,99303.86
2019-03-05T05:30:53.884Z,99304.09
2019-03-05T05:36:18.585Z,99305.98
2019-03-05T05:41:43.460Z,99328.59
2019-03-05T05:47:08.175Z,99326.95
2019-03-05T05:52:32.906Z,99326.23
2019-03-05T05:57:57.853Z,99339.97
2019-03-05T06:03:21.617Z,99341.14
2019-03-05T06:08:45.316Z,99342.92
2019-03-05T06:14:08.852Z,99356.77
2019-03-05T06:19:36.256Z,99361.49
2019-03-05T06:25:02.080Z,99376.53
2019-03-05T06:30:26.716Z,99377.94
2019-03-05T06:35:51.202Z,99392.98
2019-03-05T06:41:15.562Z,99408.36
2019-03-05T06:46:40.333Z,99404.94
2019-03-05T06:52:05.086Z,99428.96
2019-03-05T06:57:29.429Z,99420.69
2019-03-05T07:02:54.138Z,99426.25
2019-03-05T07:08:18.896Z,99433.69
2019-03-05T07:13:42.678Z,99441.17
2019-03-05T07:19:13.980Z,99444.23
2019-03-05T07:24:46.508Z,99443.52
2019-03-05T07:30:21.170Z,99441.77
2019-03-05T07:35:45.753Z,99451.95
2019-03-05T07:41:10.646Z,99457.67
2019-03-05T07:46:35.126Z,99452.77
2019-03-05T07:51:59.880Z,99477.47
2019-03-05T07:57:23.739Z,99479.59
2019-03-05T08:02:48.278Z,99478.87
2019-03-05T08:08:49.299Z,99481.81
2019-03-05T08:14:47.004Z,99493.97
2019-03-05T08:20:11.254Z,99493.34
2019-03-05T08:25:35.684Z,99509.81
2019-03-05T08:31:00.465Z,99515.86
2019-03-05T08:36:24.218Z,99518.95
2019-03-05T08:41:47.812Z,99523.95
2019-03-05T08:47:12.258Z,99525.97
2019-03-05T08:52:36.758Z,99542.72
2019-03-05T08:58:01.177Z,99547.92
2019-03-05T09:03:25.209Z,99561.00
2019-03-05T09:08:49.708Z,99553.67
2019-03-05T09:14:13.344Z,99562.06
2019-03-05T09:19:37.832Z,99548.41
2019-03-05T09:25:02.615Z,99578.57
2019-03-05T09:30:27.280Z,99579.25
2019-03-05T09:35:52.015Z,99570.06
2019-03-05T09:41:16.408Z,99583.38
2019-03-05T09:46:41.144Z,99602.30
2019-03-05T09:52:05.904Z,99607.62
2019-03-05T09:57:30.641Z,99605.86
2019-03-05T10:02:54.877Z,99607.70
2019-03-05T10:08:19.387Z,99633.98
2019-03-05T10:13:43.926Z,99640.99
2019-03-05T10:19:11.812Z,99639.02
2019-03-05T10:24:36.121Z,99647.12
2019-03-05T10:29:59.988Z,99659.74
2019-03-05T10:35:26.167Z,99654.05
2019-03-05T10:40:50.753Z,99652.11
2019-03-05T10:46:15.280Z,99661.91
2019-03-05T10:51:39.095Z,99664.81
2019-03-05T10:57:03.725Z,99658.46
2019-03-05T11:02:28.879Z,99663.20
2019-03-05T11:07:53.641Z,99658.23
2019-03-05T11:13:17.786Z,99660.54
2019-03-05T11:18:41.738Z,99637.63
2019-03-05T11:24:06.592Z,99664.36
2019-03-05T11:29:31.091Z,99656.89
2019-03-05T11:34:56.096Z,99672.42
2019-03-05T11:40:21.511Z,99660.16
2019-03-05T11:45:46.705Z,99656.92
2019-03-05T11:51:11.208Z,99659.26
2019-03-05T11:56:35.624Z,99662.53
2019-03-05T12:02:00.392Z,99661.02
2019-03-05T12:07:24.236Z,99666.47
2019-03-05T12:12:48.728Z,99672.04
2019-03-05T12:18:13.035Z,99671.94
2019-03-05T12:23:37.975Z,99670.39
2019-03-05T12:29:03.202Z,99672.38
2019-03-05T12:34:27.857Z,99676.34
2019-03-05T12:39:52.420Z,99704.11
2019-03-05T12:45:17.619Z,99691.42
2019-03-05T12:50:41.679Z,99701.28
2019-03-05T12:56:05.586Z,99703.30
2019-03-05T13:01:29.943Z,99700.54
2019-03-05T13:06:54.399Z,99702.37
2019-03-05T13:12:19.109Z,99688.51
2019-03-05T13:17:47.029Z,99702.29
2019-03-05T13:23:10.595Z,99711.26
2019-03-05T13:28:36.753Z,99711.05
2019-03-05T13:34:01.289Z,99726.08
2019-03-05T13:39:26.240Z,99731.17
2019-03-05T13:44:50.176Z,99719.54
2019-03-05T13:50:44.011Z,99721.45
2019-03-05T13:56:31.009Z,99731.99
2019-03-05T14:01:55.159Z,99739.25
2019-03-05T14:08:02.976Z,99731.63
2019-03-05T14:13:26.924Z,99749.13
2019-03-05T14:18:50.793Z,99760.77
2019-03-05T14:24:15.439Z,99788.11
2019-03-05T14:29:39.528Z,99781.61
2019-03-05T14:35:09.071Z,99783.49
2019-03-05T14:40:34.167Z,99783.66
2019-03-05T14:45:59.075Z,99778.34
2019-03-05T14:51:22.666Z,99790.25
2019-03-05T14:56:46.258Z,99795.90
2019-03-05T15:02:11.142Z,99787.83
2019-03-05T15:07:34.848Z,99808.46
2019-03-05T15:12:58.753Z,99809.09
2019-03-05T15:18:22.718Z,99817.44
2019-03-05T15:23:47.455Z,99813.98
2019-03-05T15:29:12.023Z,99827.17
2019-03-05T15:34:35.663Z,99846.30
2019-03-05T15:40:00.377Z,99849.95
2019-03-05T15:45:24.201Z,99854.45
2019-03-05T15:50:48.786Z,99840.60
2019-03-05T15:56:13.057Z,99864.61
2019-03-05T16:01:37.811Z,99858.82
2019-03-05T16:07:02.023Z,99869.25
2019-03-05T16:12:25.855Z,99877.97
2019-03-05T16:17:49.781Z,99880.83
2019-03-05T16:23:13.615Z,99891.45
2019-03-05T16:28:39.338Z,99906.33
2019-03-05T16:34:29.897Z,99914.84
2019-03-05T16:40:05.247Z,99959.89
2019-03-05T16:45:42.253Z,99998.12
2019-03-05T16:51:11.530Z,100025.22
2019-03-05T16:56:54.019Z,100042.78
2019-03-05T17:02:42.525Z,100039.23
2019-03-05T17:08:29.218Z,100040.13
2019-03-05T17:13:53.566Z,100050.98
2019-03-05T17:19:17.651Z,100038.39
2019-03-05T17:24:42.309Z,100051.48
2019-03-05T17:30:10.857Z,100055.75
2019-03-05T17:35:35.461Z,100075.36
2019-03-05T17:41:00.057Z,100089.70
2019-03-05T17:46:24.858Z,100114.39
2019-03-05T17:51:49.867Z,100124.99
2019-03-05T17:57:14.806Z,100150.18
2019-03-05T18:02:39.054Z,100160.83
2019-03-05T18:08:03.005Z,100169.17
2019-03-05T18:13:27.267Z,100182.39
2019-03-05T18:18:51.035Z,100177.91
2019-03-05T18:24:14.731Z,100187.34
2019-03-05T18:29:39.315Z,100198.41
2019-03-05T18:35:04.239Z,100204.89
2019-03-05T18:40:30.381Z,100212.23
2019-03-05T18:45:55.188Z,100223.34
2019-03-05T18:51:19.847Z,100227.05
2019-03-05T18:56:43.728Z,100237.31
2019-03-05T19:02:07.921Z,100248.81
2019-03-05T19:07:32.551Z,100255.45
2019-03-05T19:12:56.894Z,100263.85
2019-03-05T19:18:20.629Z,100279.33
2019-03-05T19:23:45.112Z,100286.94
2019-03-05T19:29:09.814Z,100290.60
2019-03-05T19:34:34.421Z,100305.46
2019-03-05T19:39:58.749Z,100316.34
2019-03-05T19:45:24.075Z,100322.20
2019-03-05T19:50:49.080Z,100335.39
2019-03-05T19:56:13.546Z,100348.95
2019-03-05T20:01:41.000Z,100348.78
2019-03-05T20:07:05.061Z,100356.98
2019-03-05T20:12:31.265Z,100353.77
2019-03-05T20:17:58.979Z,100366.67
2019-03-05T20:23:20.699Z,100378.05
2019-03-05T20:28:44.482Z,100385.41
2019-03-05T20:34:09.004Z,100389.56
2019-03-05T20:39:34.556Z,100404.30
2019-03-05T20:44:58.283Z,100406.89
2019-03-05T20:50:22.389Z,100416.59
2019-03-05T20:55:47.735Z,100427.11
2019-03-05T21:01:13.148Z,100430.24
2019-03-05T21:06:36.762Z,100438.28
2019-03-05T21:12:00.747Z,100450.48
2019-03-05T21:17:25.662Z,100456.45
2019-03-05T21:22:50.988Z,100457.87
2019-03-05T21:28:14.844Z,100458.66
2019-03-05T21:33:39.530Z,100462.73
2019-03-05T21:39:05.566Z,100474.16
2019-03-05T21:44:30.246Z,100476.48
2019-03-05T21:49:53.954Z,100484.64
2019-03-05T21:55:18.381Z,100490.91
2019-03-05T22:00:42.746Z,100496.21
2019-03-05T22:06:08.671Z,100503.97
2019-03-05T22:11:32.585Z,100503.24
2019-03-05T22:16:56.292Z,100519.83
2019-03-05T22:22:21.125Z,100523.75
2019-03-05T22:27:46.207Z,100532.09
2019-03-05T22:33:09.889Z,100538.44
2019-03-05T22:38:34.547Z,100540.44
2019-03-05T22:43:59.519Z,100540.85
2019-03-05T22:49:23.648Z,100545.95
2019-03-05T22:54:50.110Z,100554.17
2019-03-05T23:00:50.078Z,100565.80
2019-03-05T23:06:16.449Z,100566.56
2019-03-05T23:11:41.204Z,100568.44
2019-03-05T23:17:06.632Z,100587.13
2019-03-05T23:22:30.562Z,100580.82
2019-03-05T23:27:55.201Z,100579.75
2019-03-05T23:33:19.958Z,100592.66
2019-03-05T23:38:44.648Z,100593.39
2019-03-05T23:44:08.508Z,100597.17
2019-03-05T23:49:33.274Z,100602.76
2019-03-05T23:54:57.081Z,100609.15
